createdAt,value
2023-03-29T14:01:07.475Z,22.7343
2023-03-29T14:02:08.663Z,21.8030
2023-03-29T14:03:09.833Z,21.5789
2023-03-29T14:04:11.093Z,21.6186
2023-03-29T14:05:12.318Z,21.7568
2023-03-29T14:06:13.546Z,21.9322
2023-03-29T14:07:14.812Z,22.1341
2023-03-29T14:08:19.401Z,22.3136
2023-03-29T14:09:20.931Z,22.4663
2023-03-29T14:10:22.423Z,22.5996
2023-03-29T14:11:24.481Z,22.7109
2023-03-29T14:12:25.653Z,22.8107
2023-03-29T14:13:27.036Z,22.9132
2023-03-29T14:14:28.553Z,22.9968
2023-03-29T14:15:30.049Z,23.0808
2023-03-29T14:16:31.815Z,23.1418
2023-03-29T14:17:33.133Z,23.2076
2023-03-29T14:18:34.802Z,23.2700
2023-03-29T14:19:36.128Z,23.2936
2023-03-29T14:21:58.808Z,25.2721
2023-03-29T14:23:00.047Z,24.1058
2023-03-29T14:24:01.282Z,23.7080
2023-03-29T14:25:02.477Z,23.5705
2023-03-29T14:26:03.972Z,23.5272
2023-03-29T14:27:04.989Z,23.5520
2023-03-29T14:28:06.234Z,23.6112
2023-03-29T14:29:07.445Z,23.6276
2023-03-29T14:30:07.600Z,23.6342
2023-03-29T14:32:04.573Z,25.5402
2023-03-29T14:33:05.787Z,24.3558
2023-03-29T14:34:06.958Z,23.9300
2023-03-29T14:35:10.401Z,23.8026
2023-03-29T14:36:12.064Z,23.7595
2023-03-29T14:37:13.475Z,23.7316
2023-03-29T14:38:14.927Z,23.7433
2023-03-29T14:39:17.847Z,23.7679
2023-03-29T14:40:19.120Z,23.8059
2023-03-29T14:41:21.998Z,23.8160
2023-03-29T14:42:21.575Z,23.8521
2023-03-29T14:43:22.746Z,23.8563
2023-03-29T14:44:24.076Z,23.8680
2023-03-29T14:45:25.566Z,23.8965
2023-03-29T14:46:27.197Z,23.9090
2023-03-29T14:47:28.650Z,23.9142
2023-03-29T14:48:30.137Z,23.9487
2023-03-29T14:49:31.702Z,23.9413
2023-03-29T14:50:33.196Z,23.9686
2023-03-29T14:51:34.694Z,23.9904
2023-03-29T14:52:36.239Z,23.9826
2023-03-29T14:53:37.762Z,23.9226
2023-03-29T14:54:39.242Z,23.8215
2023-03-29T14:55:40.799Z,23.8554
2023-03-29T14:56:42.308Z,23.8466
2023-03-29T14:57:43.852Z,23.8712
2023-03-29T14:58:45.316Z,23.8830
2023-03-29T14:59:46.854Z,23.8969
2023-03-29T15:00:48.399Z,23.8975
2023-03-29T15:01:50.010Z,23.8858
2023-03-29T15:02:51.536Z,23.8788
2023-03-29T15:03:54.712Z,23.8772
2023-03-29T15:04:54.461Z,23.8967
2023-03-29T15:05:56.003Z,23.9043
2023-03-29T15:06:57.510Z,23.8914
2023-03-29T15:07:59.025Z,23.9101
2023-03-29T15:09:06.161Z,23.8949
2023-03-29T15:10:04.418Z,23.8875
2023-03-29T15:11:05.694Z,23.8807
2023-03-29T15:12:06.925Z,23.8581
2023-03-29T15:13:08.181Z,23.8688
2023-03-29T15:14:09.433Z,23.8770
2023-03-29T15:15:10.629Z,23.8532
2023-03-29T15:16:12.075Z,23.8493
2023-03-29T15:17:13.122Z,23.8524
2023-03-29T15:18:14.441Z,23.8326
2023-03-29T15:19:15.725Z,23.8020
2023-03-29T15:20:17.260Z,23.7909
2023-03-29T15:21:18.794Z,23.7764
2023-03-29T15:22:20.275Z,23.7659
2023-03-29T15:23:21.854Z,23.7486
2023-03-29T15:24:23.368Z,23.7466
2023-03-29T15:25:24.877Z,23.7402
2023-03-29T15:26:26.394Z,23.7314
2023-03-29T15:27:27.928Z,23.7254
2023-03-29T15:28:29.487Z,23.7145
2023-03-29T15:29:30.936Z,23.7018
2023-03-29T15:30:33.982Z,23.6895
2023-03-29T15:31:35.245Z,23.6839
2023-03-29T15:32:36.465Z,23.6700
2023-03-29T15:33:37.922Z,23.6441
2023-03-29T15:34:38.930Z,23.6478
2023-03-29T15:35:40.160Z,23.6293
2023-03-29T15:36:41.703Z,23.6143
2023-03-29T15:37:43.136Z,23.5956
2023-03-29T15:38:45.508Z,23.5578
2023-03-29T15:39:46.180Z,23.5576
2023-03-29T15:40:47.763Z,23.5395
2023-03-29T15:41:49.287Z,23.5319
2023-03-29T15:42:50.760Z,23.5116
2023-03-29T15:43:52.268Z,23.4984
2023-03-29T15:44:53.809Z,23.4680
2023-03-29T15:45:55.330Z,23.4346
2023-03-29T15:46:56.875Z,23.4615
2023-03-29T15:47:59.735Z,23.4744
2023-03-29T15:49:01.015Z,23.4873
2023-03-29T15:50:02.198Z,23.4746
2023-03-29T15:51:06.534Z,23.4479
2023-03-29T15:52:04.677Z,23.4214
2023-03-29T15:53:15.149Z,23.4037
2023-03-29T15:54:07.584Z,23.3824
2023-03-29T15:55:08.998Z,23.3701
2023-03-29T15:56:10.562Z,23.3959
2023-03-29T15:57:12.482Z,23.4187
2023-03-29T15:58:13.665Z,23.4366
2023-03-29T15:59:18.129Z,23.4128
2023-03-29T16:00:19.350Z,23.4138
2023-03-29T16:01:20.574Z,23.3793
2023-03-29T16:02:21.854Z,23.3581
2023-03-29T16:03:23.089Z,23.3551
2023-03-29T16:04:24.291Z,23.3374
2023-03-29T16:05:25.546Z,23.3349
2023-03-29T16:06:26.786Z,23.3245
2023-03-29T16:07:27.980Z,23.3189
2023-03-29T16:08:29.232Z,23.2953
2023-03-29T16:09:30.554Z,23.2803
2023-03-29T16:10:31.798Z,23.2577
2023-03-29T16:11:33.332Z,23.2593
2023-03-29T16:12:34.830Z,23.2719
2023-03-29T16:13:36.509Z,23.2665
2023-03-29T16:14:37.928Z,23.2698
2023-03-29T16:15:39.421Z,23.2522
2023-03-29T16:16:40.969Z,23.2637
2023-03-29T16:17:42.511Z,23.2569
2023-03-29T16:18:43.943Z,23.2801
2023-03-29T16:19:45.542Z,23.2772
2023-03-29T16:20:46.991Z,23.2158
2023-03-29T16:21:48.558Z,23.2232
2023-03-29T16:22:50.031Z,23.2419
2023-03-29T16:23:51.580Z,23.2211
2023-03-29T16:24:53.141Z,23.1965
2023-03-29T16:25:54.633Z,23.1911
2023-03-29T16:26:56.486Z,23.2061
2023-03-29T16:27:57.671Z,23.2014
2023-03-29T16:28:59.165Z,23.1889
2023-03-29T16:30:00.736Z,23.1858
2023-03-29T16:31:02.212Z,23.1944
2023-03-29T16:32:06.265Z,23.1948
2023-03-29T17:45:53.497Z,21.3573
2023-03-29T17:46:54.801Z,20.3851
2023-03-29T17:47:56.045Z,20.1522
2023-03-29T17:48:57.204Z,20.1458
2023-03-29T17:52:32.756Z,21.6040
2023-03-29T17:53:34.018Z,20.6153
2023-03-29T17:54:35.231Z,20.2738
2023-03-29T17:55:36.481Z,20.1941
2023-03-29T17:56:37.710Z,20.1895
2023-03-29T17:57:39.424Z,20.2187
2023-03-29T17:58:40.168Z,20.2594
2023-03-29T17:59:41.473Z,20.2908
2023-03-29T18:00:46.195Z,20.3159
2023-03-29T18:01:48.646Z,20.3485
2023-03-29T18:02:44.656Z,20.3586
2023-03-29T18:03:46.132Z,20.3791
2023-03-29T18:04:47.612Z,20.3956
2023-03-29T18:05:49.126Z,20.4089
2023-03-29T18:06:50.654Z,20.4190
2023-03-29T18:07:52.199Z,20.4459
2023-03-29T18:08:53.714Z,20.4428
2023-03-29T18:09:55.236Z,20.4625
2023-03-29T18:10:56.752Z,20.4691
2023-03-29T18:11:58.283Z,20.4800
2023-03-29T18:12:59.953Z,20.4788
2023-03-29T18:14:01.327Z,20.5038
2023-03-29T18:15:02.858Z,20.5009
2023-03-29T18:16:04.560Z,20.5104
2023-03-29T18:17:05.900Z,20.5233
2023-03-29T18:18:08.740Z,20.5461
2023-03-29T18:19:08.917Z,20.6312
2023-03-29T18:20:10.453Z,20.6605
2023-03-29T18:21:11.948Z,20.6811
2023-03-29T18:22:13.463Z,20.6739
2023-03-29T18:23:14.998Z,20.6696
2023-03-29T18:24:16.518Z,20.6712
2023-03-29T18:25:18.033Z,20.6560
2023-03-29T18:26:19.562Z,20.6431
2023-03-29T18:27:21.115Z,20.6540
2023-03-29T18:28:22.653Z,20.6439
2023-03-29T18:29:24.142Z,20.6453
2023-03-29T18:30:25.647Z,20.6400
2023-03-29T18:31:27.278Z,20.6297
2023-03-29T18:32:28.716Z,20.6151
2023-03-29T18:33:30.234Z,20.6151
2023-03-29T18:34:31.733Z,20.5983
2023-03-29T18:35:33.325Z,20.5975
2023-03-29T18:36:34.780Z,20.5962
2023-03-29T18:37:36.328Z,20.5919
2023-03-29T18:38:41.443Z,20.5843
2023-03-29T18:39:48.951Z,20.5782
2023-03-29T18:40:44.203Z,20.5965
2023-03-29T18:43:17.959Z,20.5769
2023-03-29T18:44:18.607Z,20.5831
2023-03-29T18:45:20.171Z,20.5644
2023-03-29T18:46:22.603Z,20.5652
2023-03-29T18:47:23.407Z,20.5582
2023-03-29T18:48:24.686Z,20.5527
2023-03-29T18:49:26.202Z,20.5607
2023-03-29T18:50:29.449Z,20.5728
2023-03-29T18:51:29.222Z,20.5619
2023-03-29T18:52:32.364Z,20.5689
2023-03-29T18:53:37.034Z,20.5514
2023-03-29T18:54:38.549Z,20.5426
2023-03-29T18:55:40.126Z,20.5365
2023-03-29T18:56:42.028Z,20.5328
2023-03-29T18:57:43.099Z,20.5289
2023-03-29T18:58:44.628Z,20.5350
2023-03-29T18:59:46.134Z,20.5285
2023-03-29T19:00:47.632Z,20.5256
2023-03-29T19:01:53.266Z,20.5391
2023-03-29T19:02:53.867Z,20.5529
2023-03-29T19:03:55.774Z,20.5404
2023-03-29T19:04:56.281Z,20.5580
2023-03-29T19:05:57.503Z,20.5574
2023-03-29T19:06:58.741Z,20.5587
2023-03-29T19:07:59.988Z,20.5638
2023-03-29T19:09:01.242Z,20.5398
2023-03-29T19:10:02.486Z,20.5377
2023-03-29T19:11:03.756Z,20.5566
2023-03-29T19:12:04.969Z,20.5515
2023-03-29T19:13:06.241Z,20.5369
2023-03-29T19:14:07.515Z,20.5301
2023-03-29T19:15:08.940Z,20.5307
2023-03-29T19:16:10.536Z,20.5237
2023-03-29T19:17:11.984Z,20.5135
2023-03-29T19:18:13.630Z,20.5178
2023-03-29T19:19:14.999Z,20.5404
2023-03-29T19:20:16.555Z,20.5346
2023-03-29T19:21:18.045Z,20.5260
2023-03-29T19:22:19.590Z,20.5260
2023-03-29T19:23:21.092Z,20.5163
2023-03-29T19:24:22.642Z,20.5248
2023-03-29T19:25:24.130Z,20.5170
2023-03-29T19:26:25.653Z,20.5024
2023-03-29T19:27:27.196Z,20.5057
2023-03-29T19:28:28.716Z,20.5157
2023-03-29T19:29:30.271Z,20.5118
2023-03-29T19:30:31.735Z,20.5061
2023-03-29T19:31:33.324Z,20.4995
2023-03-29T19:32:34.803Z,20.5120
2023-03-29T19:33:36.318Z,20.5057
2023-03-29T19:34:37.828Z,20.4939
2023-03-29T19:35:39.349Z,20.5048
2023-03-29T19:36:40.858Z,20.4868
2023-03-29T19:37:42.376Z,20.4855
2023-03-29T19:38:44.010Z,20.4746
2023-03-29T19:39:45.448Z,20.4775
2023-03-29T19:40:46.958Z,20.4697
2023-03-29T19:41:48.454Z,20.4652
2023-03-29T19:42:50.036Z,20.4685
2023-03-29T19:43:51.563Z,20.4638
2023-03-29T19:44:53.062Z,20.4689
2023-03-29T19:45:54.748Z,20.4693
2023-03-29T19:46:56.150Z,20.4654
2023-03-29T19:47:57.648Z,20.4633
2023-03-29T19:48:59.127Z,20.4570
2023-03-29T19:50:00.664Z,20.4650
2023-03-29T19:51:02.177Z,20.4596
2023-03-29T19:52:03.729Z,20.4494
2023-03-29T19:53:05.218Z,20.4504
2023-03-29T19:54:06.795Z,20.4531
2023-03-29T19:55:08.318Z,20.4557
2023-03-29T19:56:09.809Z,20.4642
2023-03-29T19:57:11.326Z,20.4699
2023-03-29T19:58:12.906Z,20.4650
2023-03-29T19:59:14.360Z,20.4718
2023-03-29T20:00:15.907Z,20.4586
2023-03-29T20:01:17.406Z,20.4475
2023-03-29T20:02:18.937Z,20.4590
2023-03-29T20:03:20.471Z,20.4553
2023-03-29T20:04:22.033Z,20.4646
2023-03-29T20:05:23.509Z,20.4570
2023-03-29T20:06:25.039Z,20.4549
2023-03-29T20:07:26.545Z,20.4457
2023-03-29T20:08:28.075Z,20.4486
2023-03-29T20:09:29.632Z,20.4488
2023-03-29T20:10:31.136Z,20.4403
2023-03-29T20:11:32.637Z,20.4325
2023-03-29T20:12:34.191Z,20.4194
2023-03-29T20:13:38.718Z,20.4233
2023-03-29T20:14:37.217Z,20.4231
2023-03-29T20:15:38.736Z,20.4126
2023-03-29T20:16:40.316Z,20.4071
2023-03-29T20:17:41.801Z,20.4108
2023-03-29T20:18:43.303Z,20.4231
2023-03-29T20:19:44.860Z,20.4270
2023-03-29T20:20:46.362Z,20.4327
2023-03-29T20:21:47.970Z,20.4377
2023-03-29T20:22:53.696Z,20.4229
2023-03-29T20:23:51.104Z,20.4163
2023-03-29T20:24:52.456Z,20.4194
2023-03-29T20:25:54.012Z,20.4208
2023-03-29T20:26:55.495Z,20.4216
2023-03-29T20:27:57.007Z,20.4219
2023-03-29T20:28:58.529Z,20.4108
2023-03-29T20:30:00.061Z,20.4048
2023-03-29T20:31:01.936Z,20.4030
2023-03-29T20:32:03.151Z,20.3984
2023-03-29T20:33:04.712Z,20.4025
2023-03-29T20:34:06.154Z,20.3978
2023-03-29T20:35:07.691Z,20.4034
2023-03-29T20:36:09.349Z,20.3974
2023-03-29T20:37:10.898Z,20.3980
2023-03-29T20:38:12.269Z,20.3993
2023-03-29T20:39:13.908Z,20.3943
2023-03-29T20:40:15.304Z,20.3600
2023-03-29T20:41:16.822Z,20.3843
2023-03-29T20:42:18.804Z,20.3908
2023-03-29T20:43:19.905Z,20.3958
2023-03-29T20:44:21.859Z,20.3929
2023-03-29T20:45:22.917Z,20.3873
2023-03-29T20:46:24.552Z,20.3880
2023-03-29T20:47:25.973Z,20.4036
2023-03-29T20:48:27.491Z,20.4145
2023-03-29T20:49:29.164Z,20.4358
2023-03-29T20:50:30.588Z,20.4331
2023-03-29T20:51:32.185Z,20.4264
2023-03-29T20:52:33.597Z,20.4366
2023-03-29T20:53:35.121Z,20.4576
2023-03-29T20:54:36.715Z,20.4677
2023-03-29T20:55:38.171Z,20.4707
2023-03-29T20:56:40.715Z,20.4829
2023-03-29T20:57:41.203Z,20.4806
2023-03-29T20:58:42.694Z,20.4913
2023-03-29T20:59:44.253Z,20.4921
2023-03-29T21:00:45.761Z,20.5112
2023-03-29T21:01:47.306Z,20.5231
2023-03-29T21:02:48.867Z,20.5260
2023-03-29T21:03:50.387Z,20.5190
2023-03-29T21:04:51.963Z,20.5223
2023-03-29T21:05:53.449Z,20.5192
2023-03-29T21:06:54.914Z,20.5248
2023-03-29T21:07:56.425Z,20.5330
2023-03-29T21:08:57.942Z,20.5352
2023-03-29T21:09:59.465Z,20.5381
2023-03-29T21:11:01.140Z,20.5297
2023-03-29T21:12:02.599Z,20.5484
2023-03-29T21:13:04.041Z,20.5619
2023-03-29T21:14:05.576Z,20.5582
2023-03-29T21:15:07.084Z,20.5584
2023-03-29T21:16:08.662Z,20.5508
2023-03-29T21:17:10.186Z,20.5535
2023-03-29T21:18:11.726Z,20.5414
2023-03-29T21:19:13.169Z,20.5385
2023-03-29T21:20:14.721Z,20.5324
2023-03-29T21:21:16.252Z,20.5383
2023-03-29T21:22:22.608Z,20.5391
2023-03-29T21:23:26.055Z,20.5383
2023-03-29T21:24:29.520Z,20.5375
2023-03-29T21:25:29.615Z,20.5400
2023-03-29T21:26:30.525Z,20.5367
2023-03-29T21:27:31.555Z,20.5293
2023-03-29T21:28:33.153Z,20.5280
2023-03-29T21:29:35.434Z,20.5254
2023-03-29T21:30:36.752Z,20.4944
2023-03-29T21:31:37.276Z,20.5330
2023-03-29T21:32:37.783Z,20.5533
2023-03-29T21:33:40.801Z,20.5566
2023-03-29T21:34:41.452Z,20.5568
2023-03-29T21:35:42.447Z,20.5484
2023-03-29T21:36:43.835Z,20.5541
2023-03-29T21:37:45.334Z,20.5545
2023-03-29T21:38:46.943Z,20.5543
2023-03-29T21:39:49.518Z,20.5467
2023-03-29T21:40:50.022Z,20.5424
2023-03-29T21:41:51.422Z,20.5558
2023-03-29T21:42:52.945Z,20.5632
2023-03-29T21:43:54.475Z,20.5550
2023-03-29T21:44:56.012Z,20.5498
2023-03-29T21:45:57.613Z,20.5404
2023-03-29T21:46:59.133Z,20.5338
2023-03-29T21:48:00.647Z,20.5350
2023-03-29T21:49:02.162Z,20.5515
2023-03-29T21:50:03.652Z,20.5891
2023-03-29T21:51:05.446Z,20.5835
2023-03-29T21:52:06.683Z,20.5991
2023-03-29T21:53:08.693Z,20.6084
2023-03-29T21:54:10.267Z,20.6087
2023-03-29T22:06:32.735Z,20.5818
2023-03-29T22:07:24.827Z,20.5193
2023-03-29T22:08:26.439Z,20.5215
2023-03-29T22:09:27.887Z,20.5194
2023-03-29T22:10:29.432Z,20.5180
2023-03-29T22:11:31.866Z,20.5151
2023-03-29T22:12:32.473Z,20.5005
2023-03-29T22:13:33.981Z,20.5024
2023-03-29T22:14:36.243Z,20.5036
2023-03-29T22:15:37.009Z,20.4974
2023-03-29T22:16:40.956Z,20.5022
2023-03-29T22:17:41.513Z,20.5106
2023-03-29T22:18:42.765Z,20.5038
2023-03-29T22:19:43.946Z,20.5098
2023-03-29T22:20:45.197Z,20.5036
2023-03-29T22:21:46.423Z,20.5024
2023-03-29T22:22:47.808Z,20.4960
2023-03-29T22:23:49.187Z,20.4636
2023-03-29T22:24:51.888Z,20.4471
2023-03-29T22:25:52.237Z,20.4759
2023-03-29T22:26:53.742Z,20.4870
2023-03-29T22:27:55.312Z,20.4884
2023-03-29T22:28:57.378Z,20.4755
2023-03-29T22:29:58.348Z,20.4668
2023-03-29T22:31:00.288Z,20.4662
2023-03-29T22:32:01.474Z,20.4728
2023-03-29T22:33:02.984Z,20.4804
2023-03-29T22:34:04.503Z,20.4814
2023-03-29T22:35:05.942Z,20.4864
2023-03-29T22:36:07.457Z,20.4810
2023-03-29T22:37:08.978Z,20.4812
2023-03-29T22:38:10.503Z,20.4798
2023-03-29T22:39:12.038Z,20.4866
2023-03-29T22:40:13.558Z,20.4798
2023-03-29T22:41:15.071Z,20.4835
2023-03-29T22:42:16.609Z,20.4794
2023-03-29T22:43:18.140Z,20.4853
2023-03-29T22:44:19.640Z,20.4935
2023-03-29T22:45:21.206Z,20.4985
2023-03-29T22:46:22.777Z,20.4923
2023-03-29T22:47:24.240Z,20.4907
2023-03-29T22:48:25.709Z,20.4851
2023-03-29T22:49:27.257Z,20.4833
2023-03-29T22:50:28.769Z,20.4837
2023-03-29T22:51:30.301Z,20.4835
2023-03-29T22:52:31.852Z,20.4831
2023-03-29T22:53:33.376Z,20.4829
2023-03-29T22:54:34.864Z,20.4785
2023-03-29T22:55:36.375Z,20.4925
2023-03-29T22:56:37.997Z,20.4929
2023-03-29T22:57:39.472Z,20.4964
2023-03-29T22:58:40.988Z,20.5007
2023-03-29T22:59:42.493Z,20.5042
2023-03-29T23:00:44.019Z,20.5016
2023-03-29T23:01:45.514Z,20.4884
2023-03-29T23:02:47.031Z,20.4806
2023-03-29T23:03:48.595Z,20.4804
2023-03-29T23:04:50.222Z,20.4759
2023-03-29T23:05:51.587Z,20.4714
2023-03-29T23:06:53.193Z,20.4677
2023-03-29T23:07:54.624Z,20.4685
2023-03-29T23:08:56.170Z,20.4642
2023-03-29T23:09:57.723Z,20.4582
2023-03-29T23:10:59.188Z,20.4418
2023-03-29T23:12:00.854Z,20.4498
2023-03-29T23:13:02.224Z,20.4523
2023-03-29T23:14:03.744Z,20.4442
2023-03-29T23:15:05.304Z,20.4268
2023-03-29T23:16:06.889Z,20.4264
2023-03-29T23:17:08.307Z,20.4321
2023-03-29T23:18:09.852Z,20.4319
2023-03-29T23:19:11.347Z,20.4210
2023-03-29T23:20:12.938Z,20.4258
2023-03-29T23:21:14.397Z,20.4177
2023-03-29T23:22:15.951Z,20.4149
2023-03-29T23:23:17.438Z,20.4116
2023-03-29T23:24:19.323Z,20.4110
2023-03-29T23:25:20.490Z,20.4044
2023-03-29T23:26:22.003Z,20.4052
2023-03-29T23:27:23.576Z,20.4101
2023-03-29T23:28:25.069Z,20.4089
2023-03-29T23:29:26.567Z,20.4108
2023-03-29T23:30:28.108Z,20.4044
2023-03-29T23:31:29.657Z,20.4007
2023-03-29T23:32:31.165Z,20.3980
2023-03-29T23:33:32.689Z,20.4038
2023-03-29T23:34:34.185Z,20.3949
2023-03-29T23:35:35.773Z,20.3980
2023-03-29T23:36:37.233Z,20.4005
2023-03-29T23:37:38.799Z,20.4079
2023-03-29T23:38:40.262Z,20.3962
2023-03-29T23:39:41.826Z,20.3919
2023-03-29T23:40:43.316Z,20.3912
2023-03-29T23:41:44.915Z,20.3824
2023-03-29T23:42:46.384Z,20.3820
2023-03-29T23:43:47.913Z,20.3779
2023-03-29T23:44:49.402Z,20.3728
2023-03-29T23:45:51.083Z,20.3756
2023-03-29T23:46:52.541Z,20.3769
2023-03-29T23:47:54.025Z,20.3625
2023-03-29T23:48:55.554Z,20.3654
2023-03-29T23:49:57.016Z,20.3537
2023-03-29T23:50:59.616Z,20.3502
2023-03-29T23:52:00.077Z,20.3461
2023-03-29T23:53:01.560Z,20.3467
2023-03-29T23:54:03.120Z,20.3368
2023-03-29T23:55:04.595Z,20.3395
2023-03-29T23:56:06.139Z,20.3323
2023-03-29T23:57:07.757Z,20.3389
2023-03-29T23:58:09.156Z,20.3475
2023-03-29T23:59:10.741Z,20.3444
